Time;durP1;ratioP1;P1;durP2;ratioP2;P2;SDS_P1;SDS_P2;PMS_P1;PMS_P2;Temp;Humidity;BMP_temperature;BMP_pressure;BME280_temperature;BME280_humidity;BME280_pressure;Samples;Min_cycle;Max_cycle;Signal;HPM_P1;HPM_P2
2022/11/27 00:00:40;;;;;;;;;;;;;;;11.94;72.55;102585.53;5120487;27;19985;-85
2022/11/27 00:03:05;;;;;;;;;;;;;;;11.92;72.43;102588.81;5115712;27;19934;-84
2022/11/27 00:05:31;;;;;;;;;;;;;;;11.93;72.64;102588.91;5128828;27;19919;-85
2022/11/27 00:07:56;;;;;;;;;;;;;;;11.94;72.39;102589.84;5127160;27;20376;-85
2022/11/27 00:10:22;;;;;;;;;;;;;;;11.93;72.42;102585.41;5136892;27;19915;-85
2022/11/27 00:12:47;;;;;;;;;;;;;;;11.95;72.52;102589.06;5115386;27;19915;-85
2022/11/27 00:15:12;;;;;;;;;;;;;;;11.92;72.39;102589.72;5133093;27;19911;-85
2022/11/27 00:17:38;;;;;;;;;;;;;;;11.88;72.36;102597.19;5122226;27;20340;-84
2022/11/27 00:20:04;;;;;;;;;;;;;;;11.91;72.53;102592.22;5116969;27;20388;-84
2022/11/27 00:22:29;;;;;;;;;;;;;;;11.86;72.49;102596.16;5105596;27;20336;-85
2022/11/27 00:24:54;;;;;;;;;;;;;;;11.86;72.78;102601.41;5115606;27;19918;-84
2022/11/27 00:27:20;;;;;;;;;;;;;;;11.82;72.73;102595.00;5136239;27;20369;-84
2022/11/27 00:29:54;;;;;;;;;;;;;;;11.82;72.34;102597.63;5118482;27;19964;-85
2022/11/27 00:32:32;;;;;;;;;;;;;;;11.84;72.45;102593.41;5119780;27;19934;-85
2022/11/27 00:34:58;;;;;;;;;;;;;;;11.87;72.46;102600.59;5108892;27;19911;-85
2022/11/27 00:37:23;;;;;;;;;;;;;;;11.81;72.43;102596.72;5136237;27;20303;-85
2022/11/27 00:39:49;;;;;;;;;;;;;;;11.84;72.33;102593.41;5109415;27;20440;-85
2022/11/27 00:42:14;;;;;;;;;;;;;;;11.88;72.50;102594.59;5127215;27;20403;-84
2022/11/27 00:44:42;;;;;;;;;;;;;;;11.85;72.23;102595.22;5122594;27;20034;-84
2022/11/27 00:47:08;;;;;;;;;;;;;;;11.86;72.15;102597.06;5115475;27;19953;-85
2022/11/27 00:49:33;;;;;;;;;;;;;;;11.82;72.48;102595.00;5115159;27;19911;-84
2022/11/27 00:51:58;;;;;;;;;;;;;;;11.79;72.44;102602.63;5098301;27;20430;-85
2022/11/27 00:54:24;;;;;;;;;;;;;;;11.73;72.90;102600.44;5115431;27;20314;-84
2022/11/27 00:56:50;;;;;;;;;;;;;;;11.76;72.65;102603.28;5114015;27;19919;-85
2022/11/27 00:59:15;;;;;;;;;;;;;;;11.77;72.43;102602.50;5133745;27;19916;-85
2022/11/27 01:01:41;;;;;;;;;;;;;;;11.80;72.66;102597.50;5100952;27;19998;-85
2022/11/27 01:04:07;;;;;;;;;;;;;;;11.75;72.54;102593.63;5115015;27;20405;-85
2022/11/27 01:06:33;;;;;;;;;;;;;;;11.70;72.85;102597.56;5112981;27;20342;-85
2022/11/27 01:08:58;;;;;;;;;;;;;;;11.74;72.52;102598.72;5126616;27;19915;-85
2022/11/27 01:11:25;;;;;;;;;;;;;;;11.72;72.53;102605.53;5106220;27;19916;-85
2022/11/27 01:14:01;;;;;;;;;;;;;;;11.73;72.78;102599.53;5108836;28;20385;-85
2022/11/27 01:16:27;;;;;;;;;;;;;;;11.71;72.64;102601.13;5098816;28;19973;-85
2022/11/27 01:18:53;;;;;;;;;;;;;;;11.67;72.61;102606.91;5129597;27;19919;-85
2022/11/27 01:21:19;;;;;;;;;;;;;;;11.67;72.93;102612.13;5126834;27;19920;-83
2022/11/27 01:23:45;;;;;;;;;;;;;;;11.59;72.97;102604.56;5118104;27;20002;-85
2022/11/27 01:26:10;;;;;;;;;;;;;;;11.65;72.83;102601.53;5115833;27;20362;-85
2022/11/27 01:28:38;;;;;;;;;;;;;;;11.66;72.85;102605.06;5134701;27;19960;-85
2022/11/27 01:31:04;;;;;;;;;;;;;;;11.69;72.81;102605.31;5094482;28;20320;-84
2022/11/27 01:33:30;;;;;;;;;;;;;;;11.67;72.54;102610.41;5124316;27;19911;-85
2022/11/27 01:35:56;;;;;;;;;;;;;;;11.68;72.81;102614.84;5117973;27;20341;-85
2022/11/27 01:38:21;;;;;;;;;;;;;;;11.65;72.90;102617.22;5114276;28;19911;-84
2022/11/27 01:40:47;;;;;;;;;;;;;;;11.65;73.08;102616.31;5109150;28;19922;-84
2022/11/27 01:43:15;;;;;;;;;;;;;;;11.60;73.03;102622.09;5094145;28;20373;-84
2022/11/27 01:45:42;;;;;;;;;;;;;;;11.60;72.70;102622.09;5130495;27;19912;-85
2022/11/27 01:48:07;;;;;;;;;;;;;;;11.60;72.69;102616.88;5087235;28;19965;-85
2022/11/27 01:50:36;;;;;;;;;;;;;;;11.60;72.79;102622.09;5110539;27;19992;-85
2022/11/27 01:53:04;;;;;;;;;;;;;;;11.61;72.76;102620.41;5114254;27;19916;-85
2022/11/27 01:55:34;;;;;;;;;;;;;;;11.67;72.70;102620.88;5099894;28;19947;-86
2022/11/27 01:58:03;;;;;;;;;;;;;;;11.58;72.75;102615.84;5132932;27;20002;-85
2022/11/27 02:00:28;;;;;;;;;;;;;;;11.58;73.00;102614.94;5090862;28;19927;-85
2022/11/27 02:02:54;;;;;;;;;;;;;;;11.53;73.25;102604.06;5130808;27;19916;-85
2022/11/27 02:05:50;;;;;;;;;;;;;;;11.54;73.06;102608.53;5121376;27;19950;-84
2022/11/27 02:08:16;;;;;;;;;;;;;;;11.56;73.15;102609.56;5118641;28;19963;-85
2022/11/27 02:10:47;;;;;;;;;;;;;;;11.53;73.27;102608.41;5122905;28;20014;-85
2022/11/27 02:13:28;;;;;;;;;;;;;;;11.53;73.34;102605.78;5130466;28;19920;-86
2022/11/27 02:15:59;;;;;;;;;;;;;;;11.51;73.17;102605.66;5127168;27;19926;-85
2022/11/27 02:18:34;;;;;;;;;;;;;;;11.52;73.37;102606.59;5102634;27;19929;-83
2022/11/27 02:21:03;;;;;;;;;;;;;;;11.48;73.41;102615.88;5124321;27;19917;-84
2022/11/27 02:23:34;;;;;;;;;;;;;;;11.50;73.32;102616.03;5113014;27;19911;-84
2022/11/27 02:26:00;;;;;;;;;;;;;;;11.54;73.04;102616.38;5118398;27;19912;-85
2022/11/27 02:28:33;;;;;;;;;;;;;;;11.45;73.17;102615.66;5123422;27;20354;-85
2022/11/27 02:31:04;;;;;;;;;;;;;;;11.50;73.11;102610.78;5123861;27;19918;-85
2022/11/27 02:33:30;;;;;;;;;;;;;;;11.47;72.94;102613.13;5111831;27;19911;-85
2022/11/27 02:35:58;;;;;;;;;;;;;;;11.47;72.98;102613.13;5127425;27;19912;-85
2022/11/27 02:38:25;;;;;;;;;;;;;;;11.46;72.92;102612.22;5115755;27;20372;-86
2022/11/27 02:40:54;;;;;;;;;;;;;;;11.43;73.24;102612.00;5102684;28;19915;-85
2022/11/27 02:43:21;;;;;;;;;;;;;;;11.41;73.30;102609.25;5114089;28;19965;-84
2022/11/27 02:45:47;;;;;;;;;;;;;;;11.40;73.47;102615.25;5097386;28;19923;-85
2022/11/27 02:48:13;;;;;;;;;;;;;;;11.45;72.99;102604.25;5112893;28;20461;-85
2022/11/27 02:50:39;;;;;;;;;;;;;;;11.45;72.99;102607.81;5099972;28;19912;-85
2022/11/27 02:53:08;;;;;;;;;;;;;;;11.43;73.16;102598.94;5108556;27;19911;-85
2022/11/27 02:55:34;;;;;;;;;;;;;;;11.37;73.29;102594.09;5116554;27;19915;-85
2022/11/27 02:57:59;;;;;;;;;;;;;;;11.43;73.21;102598.94;5113577;28;20404;-85
2022/11/27 03:00:25;;;;;;;;;;;;;;;11.41;73.10;102604.03;5094350;28;19928;-84
2022/11/27 03:02:58;;;;;;;;;;;;;;;11.42;72.95;102602.31;5113859;28;19965;-85
2022/11/27 03:05:24;;;;;;;;;;;;;;;11.48;72.80;102594.06;5094004;28;19912;-83
2022/11/27 03:07:55;;;;;;;;;;;;;;;11.38;73.26;102595.91;5113213;28;19920;-84
2022/11/27 03:10:28;;;;;;;;;;;;;;;11.35;73.55;102597.41;5113994;28;19955;-86
2022/11/27 03:12:53;;;;;;;;;;;;;;;11.37;73.03;102586.25;5099815;28;19916;-84
2022/11/27 03:15:19;;;;;;;;;;;;;;;11.37;73.26;102590.59;5113693;28;19918;-85
2022/11/27 03:17:50;;;;;;;;;;;;;;;11.36;73.39;102600.09;5113875;27;19943;-84
2022/11/27 03:20:22;;;;;;;;;;;;;;;11.34;73.39;102593.84;5133400;27;19958;-85
2022/11/27 03:22:47;;;;;;;;;;;;;;;11.37;73.25;102585.34;5127149;27;20507;-84
2022/11/27 03:25:14;;;;;;;;;;;;;;;11.34;73.19;102596.47;5101912;28;19937;-84
2022/11/27 03:27:45;;;;;;;;;;;;;;;11.34;73.37;102600.78;5120398;27;19916;-84
2022/11/27 03:30:11;;;;;;;;;;;;;;;11.35;73.24;102600.91;5113095;28;20046;-85
2022/11/27 03:32:36;;;;;;;;;;;;;;;11.36;72.69;102600.09;5124739;27;20330;-85
2022/11/27 03:35:01;;;;;;;;;;;;;;;11.30;72.92;102604.88;5129825;27;19916;-85
2022/11/27 03:37:27;;;;;;;;;;;;;;;11.33;73.08;102602.50;5124227;27;19916;-85
2022/11/27 03:39:52;;;;;;;;;;;;;;;11.30;73.45;102602.25;5108928;27;20408;-85
2022/11/27 03:42:37;;;;;;;;;;;;;;;11.30;72.88;102596.09;5093142;28;19916;-85
2022/11/27 03:45:08;;;;;;;;;;;;;;;11.29;73.12;102589.97;5109066;28;19958;-85
2022/11/27 03:47:33;;;;;;;;;;;;;;;11.29;73.42;102595.19;5112535;28;19912;-85
2022/11/27 03:50:25;;;;;;;;;;;;;;;11.27;73.29;102590.63;5114601;28;19919;-86
2022/11/27 03:52:53;;;;;;;;;;;;;;;11.27;73.35;102588.00;5123491;27;19911;-85
2022/11/27 03:55:19;;;;;;;;;;;;;;;11.28;73.45;102580.31;5099814;28;19919;-84
2022/11/27 03:57:47;;;;;;;;;;;;;;;11.26;73.31;102579.25;5113322;28;19915;-86
2022/11/27 04:00:13;;;;;;;;;;;;;;;11.27;73.65;102583.69;5114366;28;19920;-86
2022/11/27 04:02:40;;;;;;;;;;;;;;;11.24;73.47;102593.91;5127564;27;19968;-86
2022/11/27 04:05:05;;;;;;;;;;;;;;;11.23;73.28;102597.31;5101245;28;19919;-86
2022/11/27 04:07:31;;;;;;;;;;;;;;;11.28;73.39;102590.75;5107717;28;19912;-86
2022/11/27 04:09:56;;;;;;;;;;;;;;;11.27;73.49;102583.69;5112649;27;19916;-87
2022/11/27 04:12:22;;;;;;;;;;;;;;;11.24;73.43;102587.75;5112661;28;20426;-86
2022/11/27 04:14:47;;;;;;;;;;;;;;;11.25;73.45;102597.44;5106255;28;20435;-86
2022/11/27 04:17:13;;;;;;;;;;;;;;;11.26;73.71;102599.25;5098933;28;20313;-86
2022/11/27 04:19:38;;;;;;;;;;;;;;;11.24;73.33;102600.81;5072494;28;19956;-86
2022/11/27 04:22:03;;;;;;;;;;;;;;;11.27;73.00;102595.88;5080591;28;19916;-85
2022/11/27 04:24:29;;;;;;;;;;;;;;;11.22;73.55;102600.72;5080312;28;20376;-85
2022/11/27 04:26:54;;;;;;;;;;;;;;;11.19;73.29;102597.84;5074674;28;20395;-85
2022/11/27 04:29:21;;;;;;;;;;;;;;;11.21;73.27;102591.94;5079483;28;20420;-86
2022/11/27 04:31:46;;;;;;;;;;;;;;;11.19;73.15;102600.47;5071936;28;19913;-85
2022/11/27 04:34:11;;;;;;;;;;;;;;;11.19;73.21;102593.53;5076331;28;19973;-85
2022/11/27 04:36:37;;;;;;;;;;;;;;;11.19;73.33;102590.00;5075549;28;20390;-85
2022/11/27 04:39:02;;;;;;;;;;;;;;;11.20;73.32;102590.13;5080367;28;20362;-85
2022/11/27 04:41:28;;;;;;;;;;;;;;;11.25;72.81;102589.59;5099334;28;20582;-83
2022/11/27 04:43:54;;;;;;;;;;;;;;;11.16;73.38;102582.81;5078090;28;20407;-83
2022/11/27 04:46:20;;;;;;;;;;;;;;;11.14;73.35;102586.13;5083061;28;19912;-84
2022/11/27 04:48:45;;;;;;;;;;;;;;;11.15;73.40;102585.31;5092497;28;19916;-85
2022/11/27 04:51:11;;;;;;;;;;;;;;;11.14;73.33;102581.78;5093179;28;20405;-85
2022/11/27 04:53:36;;;;;;;;;;;;;;;11.13;73.35;102587.81;5083772;28;19923;-85
2022/11/27 04:56:05;;;;;;;;;;;;;;;11.12;73.74;102590.31;5091459;28;20139;-85
2022/11/27 04:58:30;;;;;;;;;;;;;;;11.16;73.45;102592.38;5092788;28;19934;-85
2022/11/27 05:00:56;;;;;;;;;;;;;;;11.17;73.28;102604.66;5091260;28;19916;-84
2022/11/27 05:03:21;;;;;;;;;;;;;;;11.17;73.24;102594.19;5079903;28;20405;-85
2022/11/27 05:05:53;;;;;;;;;;;;;;;11.12;73.43;102603.38;5089015;28;19915;-82
2022/11/27 05:08:18;;;;;;;;;;;;;;;11.10;73.64;102600.63;5091312;28;19912;-84
2022/11/27 05:10:45;;;;;;;;;;;;;;;11.13;73.23;102602.56;5092405;28;19973;-84
2022/11/27 05:13:11;;;;;;;;;;;;;;;11.08;73.51;102603.91;5083275;28;20061;-85
2022/11/27 05:15:36;;;;;;;;;;;;;;;11.11;73.24;102610.31;5079747;28;19978;-85
2022/11/27 05:18:02;;;;;;;;;;;;;;;11.09;73.30;102609.28;5128837;27;20445;-85
2022/11/27 05:20:30;;;;;;;;;;;;;;;11.08;73.33;102602.22;5149491;27;20336;-85
2022/11/27 05:22:55;;;;;;;;;;;;;;;11.08;73.27;102615.28;5110553;27;20014;-85
2022/11/27 05:25:20;;;;;;;;;;;;;;;11.11;73.16;102605.09;5151881;27;19959;-85
2022/11/27 05:27:46;;;;;;;;;;;;;;;11.09;73.36;102611.91;5146561;27;20469;-85
2022/11/27 05:30:11;;;;;;;;;;;;;;;11.08;73.37;102599.59;5133260;27;20497;-84
2022/11/27 05:32:37;;;;;;;;;;;;;;;11.07;73.20;102608.25;5143835;27;19973;-85
2022/11/27 05:35:03;;;;;;;;;;;;;;;11.11;73.27;102612.94;5151537;27;19915;-84
2022/11/27 05:37:28;;;;;;;;;;;;;;;11.12;73.14;102613.84;5131300;27;20439;-85
2022/11/27 05:39:53;;;;;;;;;;;;;;;11.14;72.68;102609.66;5097252;27;19920;-84
2022/11/27 05:42:19;;;;;;;;;;;;;;;11.11;72.91;102607.72;5113026;28;20305;-84
2022/11/27 05:44:44;;;;;;;;;;;;;;;11.06;73.38;102621.19;5114427;27;19915;-84
2022/11/27 05:47:10;;;;;;;;;;;;;;;11.08;73.24;102604.81;5118269;27;19911;-83
2022/11/27 05:49:36;;;;;;;;;;;;;;;11.04;73.26;102605.34;5122251;27;20368;-85
2022/11/27 05:52:01;;;;;;;;;;;;;;;11.04;73.28;102607.97;5111964;28;20467;-84
2022/11/27 05:54:27;;;;;;;;;;;;;;;11.01;73.51;102610.34;5114523;27;20449;-84
2022/11/27 05:56:53;;;;;;;;;;;;;;;11.04;73.27;102614.91;5116920;27;20393;-85
2022/11/27 05:59:18;;;;;;;;;;;;;;;11.04;73.03;102614.91;5100876;28;20407;-86
2022/11/27 06:01:44;;;;;;;;;;;;;;;11.07;73.24;102609.91;5117415;27;19916;-87
2022/11/27 06:04:09;;;;;;;;;;;;;;;11.03;73.30;102613.06;5115000;27;19911;-86
2022/11/27 06:06:35;;;;;;;;;;;;;;;11.09;72.66;102609.28;5124321;27;20371;-86
2022/11/27 06:09:00;;;;;;;;;;;;;;;11.09;72.67;102613.56;5142957;27;20324;-87
2022/11/27 06:11:26;;;;;;;;;;;;;;;11.02;73.23;102614.78;5140597;27;19911;-86
2022/11/27 06:13:51;;;;;;;;;;;;;;;11.00;73.32;102616.34;5120785;28;20312;-87
2022/11/27 06:16:17;;;;;;;;;;;;;;;10.96;73.37;102615.22;5107585;27;19917;-86
2022/11/27 06:18:43;;;;;;;;;;;;;;;11.06;73.26;102608.09;5115424;28;19945;-86
2022/11/27 06:21:09;;;;;;;;;;;;;;;11.01;72.92;102612.97;5098696;27;19915;-86
2022/11/27 06:23:36;;;;;;;;;;;;;;;11.00;73.35;102612.03;5137424;27;19962;-85
2022/11/27 06:26:18;;;;;;;;;;;;;;;11.01;73.03;102615.59;5110654;27;19922;-86
2022/11/27 06:28:43;;;;;;;;;;;;;;;11.03;73.04;102623.53;5088327;28;19974;-85
2022/11/27 06:31:13;;;;;;;;;;;;;;;11.01;73.36;102633.88;5102667;27;19977;-87
2022/11/27 06:33:38;;;;;;;;;;;;;;;10.98;73.21;102636.22;5109194;28;19916;-87
2022/11/27 06:36:04;;;;;;;;;;;;;;;10.98;73.42;102637.16;5109847;27;19919;-88
2022/11/27 06:38:30;;;;;;;;;;;;;;;11.02;72.86;102633.09;5111993;28;20006;-87
2022/11/27 06:41:00;;;;;;;;;;;;;;;11.08;72.61;102643.13;5119521;28;20064;-85
2022/11/27 06:43:32;;;;;;;;;;;;;;;11.03;72.77;102640.16;5111728;28;19972;-86
2022/11/27 06:45:58;;;;;;;;;;;;;;;10.98;72.81;102641.44;5109709;28;20409;-86
2022/11/27 06:48:23;;;;;;;;;;;;;;;11.03;72.64;102640.16;5113379;27;19961;-86
2022/11/27 06:50:49;;;;;;;;;;;;;;;11.03;72.57;102645.38;5104871;28;20403;-87
2022/11/27 06:53:14;;;;;;;;;;;;;;;11.03;72.93;102639.22;5117454;28;20315;-86
2022/11/27 06:55:39;;;;;;;;;;;;;;;11.03;72.66;102655.84;5117184;27;19997;-86
2022/11/27 06:58:05;;;;;;;;;;;;;;;11.02;72.62;102647.84;5112010;28;19966;-88
2022/11/27 07:00:31;;;;;;;;;;;;;;;11.02;72.54;102643.53;5130704;28;19919;-87
2022/11/27 07:02:56;;;;;;;;;;;;;;;11.08;72.39;102649.28;5098633;27;19968;-87
2022/11/27 07:05:22;;;;;;;;;;;;;;;11.00;65.72;102643.41;5115158;27;20006;-84
2022/11/27 07:07:51;;;;;;;;;;;;;;;11.03;66.17;102650.63;5133262;27;19917;-88
2022/11/27 07:10:16;;;;;;;;;;;;;;;11.09;68.10;102647.56;5110965;27;19915;-88
2022/11/27 07:12:42;;;;;;;;;;;;;;;10.98;68.75;102649.28;5103263;27;19918;-88
2022/11/27 07:15:08;;;;;;;;;;;;;;;11.06;69.30;102649.94;5136925;27;19998;-88
2022/11/27 07:17:41;;;;;;;;;;;;;;;11.07;69.65;102650.06;5085865;28;20014;-88
2022/11/27 07:20:07;;;;;;;;;;;;;;;11.14;69.59;102643.66;5088628;28;20378;-88
2022/11/27 07:22:33;;;;;;;;;;;;;;;11.16;70.07;102642.97;5092734;28;20001;-88
2022/11/27 07:24:59;;;;;;;;;;;;;;;11.16;69.84;102636.84;5100775;27;20288;-89
2022/11/27 07:27:25;;;;;;;;;;;;;;;11.13;69.96;102640.13;5114584;27;19999;-88
2022/11/27 07:29:52;;;;;;;;;;;;;;;11.13;70.44;102632.28;5101071;27;20011;-89
2022/11/27 07:32:19;;;;;;;;;;;;;;;11.10;70.05;102631.09;5111029;27;20368;-88
2022/11/27 07:34:47;;;;;;;;;;;;;;;11.08;70.26;102635.28;5111054;27;19926;-88
2022/11/27 07:37:15;;;;;;;;;;;;;;;11.03;70.51;102611.41;5109258;28;19987;-88
2022/11/27 07:39:40;;;;;;;;;;;;;;;11.11;70.82;102644.31;5095232;28;19959;-88
2022/11/27 07:42:08;;;;;;;;;;;;;;;11.12;70.60;102633.03;5103116;28;20387;-89
2022/11/27 07:44:34;;;;;;;;;;;;;;;11.07;70.31;102628.22;5098970;28;19970;-89
2022/11/27 07:47:01;;;;;;;;;;;;;;;11.11;70.18;102619.84;5107878;27;19995;-89
2022/11/27 07:49:26;;;;;;;;;;;;;;;11.10;70.70;102633.72;5095243;28;19919;-87
2022/11/27 07:51:51;;;;;;;;;;;;;;;11.16;70.41;102635.13;5117648;27;19916;-88
2022/11/27 07:54:19;;;;;;;;;;;;;;;11.10;70.52;102632.00;5098908;28;20441;-91
2022/11/27 07:56:44;;;;;;;;;;;;;;;11.08;70.45;102630.97;5096203;27;19996;-89
2022/11/27 07:59:16;;;;;;;;;;;;;;;11.15;70.31;102628.09;5112872;27;20552;-89
2022/11/27 08:02:04;;;;;;;;;;;;;;;11.12;71.29;102638.28;5084640;27;20002;-92
2022/11/27 08:04:29;;;;;;;;;;;;;;;11.10;71.55;102641.56;5112623;27;19916;-83
2022/11/27 08:07:26;;;;;;;;;;;;;;;11.16;71.67;102642.97;5108181;27;19915;-91
2022/11/27 08:09:58;;;;;;;;;;;;;;;11.17;71.52;102643.88;5114106;27;20376;-92
2022/11/27 08:12:31;;;;;;;;;;;;;;;11.06;71.58;102642.09;5108477;27;19920;-90
2022/11/27 08:14:57;;;;;;;;;;;;;;;11.07;71.41;102634.38;5112877;27;19919;-89
2022/11/27 08:17:32;;;;;;;;;;;;;;;11.09;71.54;102639.72;5088470;28;20029;-90
2022/11/27 08:20:11;;;;;;;;;;;;;;;11.09;71.73;102642.34;5075475;28;19920;-90
2022/11/27 08:22:39;;;;;;;;;;;;;;;11.10;72.23;102644.19;5086541;28;19923;-89
2022/11/27 08:25:05;;;;;;;;;;;;;;;11.08;71.79;102641.44;5064537;28;19924;-86
2022/11/27 08:27:32;;;;;;;;;;;;;;;11.13;71.72;102642.75;5071320;28;20386;-89
2022/11/27 08:30:01;;;;;;;;;;;;;;;11.10;72.11;102637.25;5066669;28;20011;-90
2022/11/27 08:32:39;;;;;;;;;;;;;;;11.10;72.13;102641.56;5085834;28;20412;-91
2022/11/27 08:35:16;;;;;;;;;;;;;;;11.10;71.78;102652.03;5088399;28;19923;-89
2022/11/27 08:37:42;;;;;;;;;;;;;;;11.11;72.27;102643.38;5097721;27;20306;-89
2022/11/27 08:40:30;;;;;;;;;;;;;;;11.10;71.78;102645.09;5073654;28;19924;-90
2022/11/27 08:42:59;;;;;;;;;;;;;;;11.09;71.52;102640.66;5066148;28;19916;-92
2022/11/27 08:45:25;;;;;;;;;;;;;;;11.10;72.24;102647.69;5083630;28;19920;-91
2022/11/27 08:47:55;;;;;;;;;;;;;;;11.08;72.31;102638.81;5072692;28;19916;-91
2022/11/27 08:50:37;;;;;;;;;;;;;;;11.09;72.19;102637.09;5068625;28;19916;-91
2022/11/27 08:53:20;;;;;;;;;;;;;;;11.09;71.95;102635.44;5072904;28;20671;-90
2022/11/27 08:56:06;;;;;;;;;;;;;;;11.12;71.93;102629.53;5066646;28;19923;-91
2022/11/27 08:58:36;;;;;;;;;;;;;;;11.10;72.05;102631.09;5070572;28;19920;-93
2022/11/27 09:01:18;;;;;;;;;;;;;;;11.13;71.58;102637.50;5075381;28;19924;-95
2022/11/27 09:03:49;;;;;;;;;;;;;;;11.09;71.83;102635.44;5071356;28;19921;-91
2022/11/27 09:06:26;;;;;;;;;;;;;;;11.09;71.94;102626.66;5090378;28;20404;-91
2022/11/27 09:08:57;;;;;;;;;;;;;;;11.08;71.83;102617.00;5065984;28;20381;-91
2022/11/27 09:11:25;;;;;;;;;;;;;;;11.08;71.67;102615.28;5064714;28;19966;-92
2022/11/27 09:13:51;;;;;;;;;;;;;;;11.07;71.54;102610.84;5077106;28;19954;-91
2022/11/27 09:16:18;;;;;;;;;;;;;;;11.09;71.49;102603.13;5072183;28;20392;-89
2022/11/27 09:18:46;;;;;;;;;;;;;;;11.03;71.28;102606.16;5105303;27;20429;-89
2022/11/27 09:21:16;;;;;;;;;;;;;;;11.04;71.47;102605.34;5104577;28;19919;-90
2022/11/27 09:23:43;;;;;;;;;;;;;;;11.06;71.42;102603.78;5099685;27;19919;-90
2022/11/27 09:26:10;;;;;;;;;;;;;;;11.08;71.24;102591.75;5101385;28;19915;-82
2022/11/27 09:28:42;;;;;;;;;;;;;;;11.07;71.43;102596.84;5109816;27;19916;-89
2022/11/27 09:31:12;;;;;;;;;;;;;;;11.07;71.16;102603.00;5091619;28;20381;-91
2022/11/27 09:33:39;;;;;;;;;;;;;;;11.08;71.38;102590.84;5104292;27;19911;-89
2022/11/27 09:36:11;;;;;;;;;;;;;;;11.08;71.19;102589.13;5100180;27;20309;-88
2022/11/27 09:38:53;;;;;;;;;;;;;;;11.06;71.05;102576.72;5111373;27;19916;-89
2022/11/27 09:41:19;;;;;;;;;;;;;;;11.04;71.46;102573.97;5110834;28;19911;-88
2022/11/27 09:43:56;;;;;;;;;;;;;;;11.07;71.51;102568.09;5110658;28;19930;-88
2022/11/27 09:46:37;;;;;;;;;;;;;;;11.06;71.37;102561.94;5094247;28;19961;-89
2022/11/27 09:49:07;;;;;;;;;;;;;;;11.05;71.10;102560.16;5093247;28;20004;-89
2022/11/27 09:51:49;;;;;;;;;;;;;;;11.04;71.31;102560.00;5103808;28;20319;-87
2022/11/27 09:54:18;;;;;;;;;;;;;;;11.05;71.21;102551.34;5098779;28;19974;-88
2022/11/27 09:56:46;;;;;;;;;;;;;;;11.05;71.50;102554.91;5110484;28;20309;-88
2022/11/27 09:59:27;;;;;;;;;;;;;;;11.06;71.36;102547.97;5093091;28;20485;-89
2022/11/27 10:01:54;;;;;;;;;;;;;;;11.05;71.27;102540.91;5110702;28;19916;-89
2022/11/27 10:04:24;;;;;;;;;;;;;;;11.08;71.27;102543.78;5091126;28;19912;-87
2022/11/27 10:07:09;;;;;;;;;;;;;;;11.09;71.66;102535.13;5092882;28;19912;-87
2022/11/27 10:09:36;;;;;;;;;;;;;;;11.06;71.73;102541.03;5104315;28;19923;-87
2022/11/27 10:12:14;;;;;;;;;;;;;;;11.05;71.71;102543.50;5109586;28;19922;-86
2022/11/27 10:14:43;;;;;;;;;;;;;;;11.08;71.55;102549.00;5085556;28;19916;-87
2022/11/27 10:17:16;;;;;;;;;;;;;;;11.08;71.59;102547.31;5110627;28;19926;-87
2022/11/27 10:19:45;;;;;;;;;;;;;;;11.08;71.82;102543.78;5125575;27;19975;-89
2022/11/27 10:22:20;;;;;;;;;;;;;;;11.10;71.69;102545.72;5097108;28;19916;-90
2022/11/27 10:25:08;;;;;;;;;;;;;;;11.09;71.90;102546.53;5095407;28;19968;-88
2022/11/27 10:27:41;;;;;;;;;;;;;;;11.07;71.60;102548.09;5111828;27;19923;-88
2022/11/27 10:30:26;;;;;;;;;;;;;;;11.09;72.00;102551.75;5102850;28;20014;-89
2022/11/27 10:32:54;;;;;;;;;;;;;;;11.12;71.57;102552.00;5092659;28;19924;-89
2022/11/27 10:35:27;;;;;;;;;;;;;;;11.09;71.56;102545.59;5081442;28;19920;-90
2022/11/27 10:38:05;;;;;;;;;;;;;;;11.11;71.81;102539.72;5109436;28;19915;-88
2022/11/27 10:40:38;;;;;;;;;;;;;;;11.13;71.85;102540.75;5103564;27;19935;-88
2022/11/27 10:43:12;;;;;;;;;;;;;;;11.12;72.05;102532.78;5112137;27;19958;-90
2022/11/27 10:45:57;;;;;;;;;;;;;;;11.13;71.68;102527.69;5091263;27;19967;-88
2022/11/27 10:48:24;;;;;;;;;;;;;;;11.11;71.55;102531.88;5113167;27;19937;-88
2022/11/27 10:50:56;;;;;;;;;;;;;;;11.11;71.70;102526.66;5099064;27;19983;-88
2022/11/27 10:53:29;;;;;;;;;;;;;;;11.08;71.96;102517.63;5099449;27;19916;-89
2022/11/27 10:55:55;;;;;;;;;;;;;;;11.12;71.80;102524.94;5100287;27;19943;-85
2022/11/27 10:58:25;;;;;;;;;;;;;;;11.10;72.07;102516.97;5131765;27;20304;-86
2022/11/27 11:01:05;;;;;;;;;;;;;;;11.12;71.78;102518.00;5117056;27;20321;-86
2022/11/27 11:03:32;;;;;;;;;;;;;;;11.12;71.87;102512.78;5100549;27;19916;-85
2022/11/27 11:05:59;;;;;;;;;;;;;;;11.13;72.08;102500.59;5104301;27;19967;-85
2022/11/27 11:08:25;;;;;;;;;;;;;;;11.11;71.86;102497.88;5122453;27;19989;-86
2022/11/27 11:10:50;;;;;;;;;;;;;;;11.09;71.66;102499.47;5136444;27;19916;-85
2022/11/27 11:13:17;;;;;;;;;;;;;;;11.10;71.58;102495.16;5152388;27;19911;-85
2022/11/27 11:16:06;;;;;;;;;;;;;;;11.09;71.53;102494.25;5109269;27;19911;-85
2022/11/27 11:18:33;;;;;;;;;;;;;;;11.11;71.71;102490.03;5122681;27;19919;-87
2022/11/27 11:21:02;;;;;;;;;;;;;;;11.11;71.61;102491.72;5099047;27;19939;-86
2022/11/27 11:23:32;;;;;;;;;;;;;;;11.10;72.10;102490.81;5098559;28;19912;-88
2022/11/27 11:25:58;;;;;;;;;;;;;;;11.09;71.83;102486.41;5096734;27;19958;-87
2022/11/27 11:28:27;;;;;;;;;;;;;;;11.10;71.83;102490.81;5115326;27;19915;-90
2022/11/27 11:31:13;;;;;;;;;;;;;;;11.13;71.86;102482.28;5100722;27;19912;-87
2022/11/27 11:33:45;;;;;;;;;;;;;;;11.09;71.81;102481.16;5134995;27;19972;-87
2022/11/27 11:36:11;;;;;;;;;;;;;;;11.09;71.74;102477.63;5099503;27;19911;-87
2022/11/27 11:38:37;;;;;;;;;;;;;;;11.10;71.84;102474.22;5095166;28;19922;-87
2022/11/27 11:41:04;;;;;;;;;;;;;;;11.14;71.97;102476.28;5100134;27;19915;-86
2022/11/27 11:43:32;;;;;;;;;;;;;;;11.11;72.02;102471.75;5096287;27;19959;-87
2022/11/27 11:46:17;;;;;;;;;;;;;;;11.11;71.89;102476.97;5116540;27;19912;-86
2022/11/27 11:48:56;;;;;;;;;;;;;;;11.12;71.79;102476.16;5108396;27;19969;-86
2022/11/27 11:51:34;;;;;;;;;;;;;;;11.12;71.82;102470.03;5110461;27;20009;-85
2022/11/27 11:54:22;;;;;;;;;;;;;;;11.11;71.98;102466.50;5140138;27;19998;-87
2022/11/27 11:56:51;;;;;;;;;;;;;;;11.16;69.54;102466.88;5096476;27;19980;-88
2022/11/27 11:59:22;;;;;;;;;;;;;;;11.13;71.07;102459.69;5110888;27;19976;-88
2022/11/27 12:01:53;;;;;;;;;;;;;;;11.11;71.14;102463.91;5100326;27;20006;-87
2022/11/27 12:04:18;;;;;;;;;;;;;;;11.08;69.92;102460.13;5139858;27;19919;-87
2022/11/27 12:06:45;;;;;;;;;;;;;;;11.09;71.19;102454.09;5117491;27;19975;-90
2022/11/27 12:09:11;;;;;;;;;;;;;;;11.11;70.63;102465.56;5122379;27;20368;-89
2022/11/27 12:11:39;;;;;;;;;;;;;;;11.12;71.15;102460.47;5136665;27;19976;-90
2022/11/27 12:14:15;;;;;;;;;;;;;;;11.10;71.19;102462.06;5098145;27;19999;-89
2022/11/27 12:16:54;;;;;;;;;;;;;;;11.10;70.93;102456.81;5098704;27;19927;-90
2022/11/27 12:19:23;;;;;;;;;;;;;;;11.09;70.98;102454.09;5143569;27;19963;-87
2022/11/27 12:22:06;;;;;;;;;;;;;;;11.08;71.52;102461.03;5121785;27;19963;-87
2022/11/27 12:24:51;;;;;;;;;;;;;;;11.07;71.16;102459.22;5133164;27;19915;-86
2022/11/27 12:27:41;;;;;;;;;;;;;;;11.04;71.01;102456.34;5116855;27;20384;-86
2022/11/27 12:30:11;;;;;;;;;;;;;;;11.03;70.18;102448.38;5133268;27;19962;-86
2022/11/27 12:32:41;;;;;;;;;;;;;;;11.08;69.61;102453.19;5132591;27;19911;-87
2022/11/27 12:35:13;;;;;;;;;;;;;;;11.04;71.32;102456.34;5129948;27;19912;-87
2022/11/27 12:37:42;;;;;;;;;;;;;;;11.06;71.08;102459.09;5125045;27;20361;-86
2022/11/27 12:40:07;;;;;;;;;;;;;;;11.06;71.54;102452.16;5087884;27;19920;-86
2022/11/27 12:42:44;;;;;;;;;;;;;;;11.07;71.15;102455.66;5133544;27;20348;-83
2022/11/27 12:45:19;;;;;;;;;;;;;;;11.13;67.79;102454.47;5129971;27;19915;-86